createdAt,value
2022-09-13T00:00:03.583Z,6.72
2022-09-13T00:02:31.410Z,5.78
2022-09-13T00:04:59.401Z,5.95
2022-09-13T00:07:27.150Z,6.88
2022-09-13T00:09:54.943Z,6.47
2022-09-13T00:12:24.066Z,5.88
2022-09-13T00:14:51.831Z,6.85
2022-09-13T00:17:19.690Z,5.88
2022-09-13T00:19:48.040Z,5.15
2022-09-13T00:22:15.896Z,6.10
2022-09-13T00:24:43.807Z,6.28
2022-09-13T00:27:12.924Z,6.70
2022-09-13T00:29:42.156Z,6.88
2022-09-13T00:32:10.039Z,7.50
2022-09-13T00:34:37.799Z,5.88
2022-09-13T00:37:06.149Z,5.47
2022-09-13T00:39:33.887Z,5.43
2022-09-13T00:42:01.716Z,7.38
2022-09-13T00:44:51.000Z,5.57
2022-09-13T00:47:34.274Z,5.57
2022-09-13T00:50:07.912Z,6.13
2022-09-13T00:52:37.179Z,5.72
2022-09-13T00:55:12.019Z,6.30
2022-09-13T00:57:42.029Z,6.50
2022-09-13T01:00:14.695Z,6.28
2022-09-13T01:02:45.590Z,5.25
2022-09-13T01:05:15.642Z,7.68
2022-09-13T01:07:43.792Z,6.05
2022-09-13T01:10:12.039Z,5.22
2022-09-13T01:12:48.719Z,6.43
2022-09-13T01:15:18.132Z,6.32
2022-09-13T01:17:46.141Z,5.95
2022-09-13T01:20:15.038Z,6.50
2022-09-13T01:23:19.747Z,8.13
2022-09-13T01:26:29.996Z,7.03
2022-09-13T01:29:28.138Z,6.30
2022-09-13T01:32:06.620Z,6.18
2022-09-13T01:34:46.202Z,5.60
2022-09-13T01:37:32.457Z,5.53
2022-09-13T01:40:17.406Z,6.22
2022-09-13T01:42:55.750Z,5.78
2022-09-13T01:45:38.179Z,5.88
2022-09-13T01:48:14.388Z,7.80
2022-09-13T01:50:46.964Z,5.82
2022-09-13T01:53:24.264Z,7.90
2022-09-13T01:56:00.274Z,6.63
2022-09-13T01:58:35.055Z,7.57
2022-09-13T02:01:08.899Z,7.35
2022-09-13T02:03:43.098Z,11.05
2022-09-13T02:06:15.370Z,6.93
2022-09-13T02:08:45.788Z,10.25
2022-09-13T02:11:15.327Z,10.80
2022-09-13T02:13:49.551Z,8.70
2022-09-13T02:16:21.550Z,8.75
2022-09-13T02:18:56.480Z,9.32
2022-09-13T02:21:29.792Z,9.07
2022-09-13T02:24:02.989Z,11.80
2022-09-13T02:26:32.656Z,9.63
2022-09-13T02:29:03.987Z,9.10
2022-09-13T02:31:37.307Z,8.80
2022-09-13T02:34:10.018Z,9.77
2022-09-13T02:36:41.580Z,8.85
2022-09-13T02:39:14.726Z,8.93
2022-09-13T02:41:49.592Z,8.73
2022-09-13T02:44:24.261Z,8.68
2022-09-13T02:47:21.507Z,8.50
2022-09-13T02:50:03.697Z,9.30
2022-09-13T02:52:41.950Z,9.40
2022-09-13T02:55:19.212Z,9.20
2022-09-13T02:57:55.024Z,9.50
2022-09-13T03:00:23.518Z,9.20
2022-09-13T03:02:53.732Z,8.43
2022-09-13T03:05:23.013Z,9.45
2022-09-13T03:07:51.704Z,8.93
2022-09-13T03:10:19.744Z,9.30
2022-09-13T03:13:12.028Z,9.80
2022-09-13T03:15:55.246Z,8.70
2022-09-13T03:18:38.885Z,10.50
2022-09-13T03:21:18.532Z,11.77
2022-09-13T03:23:54.417Z,9.10
2022-09-13T03:26:33.169Z,9.45
2022-09-13T03:29:14.695Z,11.43
2022-09-13T03:31:50.299Z,9.10
2022-09-13T03:34:26.712Z,9.45
2022-09-13T03:37:01.780Z,10.13
2022-09-13T03:39:37.579Z,9.85
2022-09-13T03:42:12.067Z,9.85
2022-09-13T03:44:43.402Z,8.80
2022-09-13T03:47:12.349Z,10.55
2022-09-13T03:49:40.855Z,10.57
2022-09-13T03:52:10.811Z,9.98
2022-09-13T03:54:39.612Z,10.00
2022-09-13T03:57:09.657Z,9.45
2022-09-13T03:59:38.903Z,9.38
2022-09-13T04:02:11.056Z,9.30
2022-09-13T04:04:39.627Z,8.93
2022-09-13T04:07:09.144Z,9.75
2022-09-13T04:09:36.887Z,8.77
2022-09-13T04:12:05.718Z,10.30
2022-09-13T04:14:33.587Z,12.67
2022-09-13T04:17:01.367Z,10.18
2022-09-13T04:19:29.357Z,12.67
2022-09-13T04:21:57.094Z,10.70
2022-09-13T04:24:29.268Z,10.10
2022-09-13T04:26:57.380Z,8.77
2022-09-13T04:29:26.664Z,8.93
2022-09-13T04:31:55.847Z,10.13
2022-09-13T04:34:24.214Z,9.45
2022-09-13T04:36:53.303Z,9.27
2022-09-13T04:39:21.488Z,8.80
2022-09-13T04:41:51.943Z,10.95
2022-09-13T04:44:20.725Z,8.90
2022-09-13T04:46:49.559Z,8.07
2022-09-13T04:49:18.024Z,8.90
2022-09-13T04:51:46.015Z,8.77
2022-09-13T04:54:16.226Z,9.10
2022-09-13T04:56:44.795Z,9.27
2022-09-13T04:59:14.712Z,9.35
2022-09-13T05:01:42.737Z,9.02
2022-09-13T05:04:11.332Z,7.22
2022-09-13T05:06:39.481Z,8.07
2022-09-13T05:09:07.679Z,9.50
2022-09-13T05:11:35.628Z,7.65
2022-09-13T05:14:03.964Z,9.23
2022-09-13T05:16:34.734Z,10.38
2022-09-13T05:19:03.038Z,9.95
2022-09-13T05:21:31.782Z,10.65
2022-09-13T05:24:00.303Z,9.43
2022-09-13T05:26:31.177Z,10.48
2022-09-13T05:28:59.361Z,10.90
2022-09-13T05:31:30.461Z,10.82
2022-09-13T05:34:02.338Z,10.55
2022-09-13T05:36:30.625Z,11.98
2022-09-13T05:39:25.918Z,11.20
2022-09-13T05:41:46.953Z,12.85
2022-09-13T05:44:15.136Z,14.57
2022-09-13T05:46:43.311Z,11.55
2022-09-13T05:49:13.729Z,11.23
2022-09-13T05:51:41.881Z,10.82
2022-09-13T05:54:12.049Z,10.60
2022-09-13T05:56:40.077Z,11.20
2022-09-13T05:59:08.852Z,12.35
2022-09-13T06:01:36.727Z,13.57
2022-09-13T06:04:04.830Z,12.40
2022-09-13T06:06:35.159Z,15.32
2022-09-13T06:09:02.925Z,14.32
2022-09-13T06:11:30.740Z,15.50
2022-09-13T06:13:58.539Z,21.10
2022-09-13T06:16:26.509Z,17.50
2022-09-13T06:18:54.464Z,16.55
2022-09-13T06:21:28.310Z,16.75
2022-09-13T06:23:58.628Z,14.82
2022-09-13T06:26:28.305Z,13.77
2022-09-13T06:28:58.259Z,15.80
2022-09-13T06:31:27.932Z,18.52
2022-09-13T06:34:00.328Z,18.30
2022-09-13T06:36:28.352Z,17.98
2022-09-13T06:38:56.956Z,19.20
2022-09-13T06:41:27.335Z,21.77
2022-09-13T06:43:56.265Z,22.48
2022-09-13T06:46:25.397Z,20.42
2022-09-13T06:48:54.008Z,19.73
2022-09-13T06:51:24.063Z,19.58
2022-09-13T06:53:52.755Z,21.90
2022-09-13T06:56:22.715Z,21.80
2022-09-13T06:58:53.640Z,21.65
2022-09-13T07:01:23.671Z,18.42
2022-09-13T07:03:54.338Z,21.70
2022-09-13T07:06:26.970Z,19.63
2022-09-13T07:08:55.699Z,19.90
2022-09-13T07:11:25.323Z,20.98
2022-09-13T07:13:56.250Z,25.45
2022-09-13T07:16:26.949Z,18.83
2022-09-13T07:18:56.447Z,26.42
2022-09-13T07:21:24.970Z,20.40
2022-09-13T07:23:54.156Z,20.90
2022-09-13T07:26:22.964Z,19.83
2022-09-13T07:28:53.137Z,19.85
2022-09-13T07:31:23.979Z,20.80
2022-09-13T07:33:56.227Z,22.65
2022-09-13T07:36:24.389Z,20.30
2022-09-13T07:38:52.560Z,18.23
2022-09-13T07:41:22.181Z,18.67
2022-09-13T07:43:51.801Z,17.63
2022-09-13T07:46:23.325Z,16.50
2022-09-13T07:48:53.849Z,16.70
2022-09-13T07:51:23.726Z,15.63
2022-09-13T07:53:57.097Z,14.77
2022-09-13T07:56:27.588Z,14.23
2022-09-13T07:58:56.181Z,11.68
2022-09-13T08:01:27.565Z,10.88
2022-09-13T08:03:56.770Z,8.50
2022-09-13T08:06:25.767Z,8.75
2022-09-13T08:08:53.738Z,8.93
2022-09-13T08:11:23.219Z,6.40
2022-09-13T08:13:52.895Z,9.18
2022-09-13T08:16:22.035Z,6.78
2022-09-13T08:18:53.808Z,8.23
2022-09-13T08:21:22.239Z,6.15
2022-09-13T08:23:50.186Z,5.95
2022-09-13T08:26:18.271Z,5.78
2022-09-13T08:28:46.156Z,5.25
2022-09-13T08:31:17.061Z,5.93
2022-09-13T08:33:47.870Z,4.55
2022-09-13T08:36:18.144Z,4.60
2022-09-13T08:38:49.679Z,4.30
2022-09-13T08:41:33.880Z,4.68
2022-09-13T08:44:07.138Z,4.70
2022-09-13T08:46:38.612Z,3.33
2022-09-13T08:49:11.908Z,4.05
2022-09-13T08:51:48.837Z,7.25
2022-09-13T08:54:18.243Z,3.15
2022-09-13T08:56:52.702Z,2.97
2022-09-13T08:59:35.940Z,3.63
2022-09-13T09:02:18.723Z,2.47
2022-09-13T09:04:51.764Z,2.20
2022-09-13T09:07:24.788Z,2.63
2022-09-13T09:09:57.095Z,2.42
2022-09-13T09:12:32.492Z,2.85
2022-09-13T09:15:05.558Z,2.17
2022-09-13T09:17:47.925Z,3.03
2022-09-13T09:20:26.755Z,2.50
2022-09-13T09:22:56.643Z,3.35
2022-09-13T09:25:27.045Z,2.35
2022-09-13T09:27:55.243Z,3.80
2022-09-13T09:30:23.033Z,2.00
2022-09-13T09:33:02.386Z,2.92
2022-09-13T09:35:43.845Z,1.65
2022-09-13T09:38:33.017Z,1.77
2022-09-13T09:41:05.643Z,2.47
2022-09-13T09:43:37.598Z,2.00
2022-09-13T09:46:09.934Z,0.95
2022-09-13T09:48:43.890Z,1.33
2022-09-13T09:51:13.987Z,1.00
2022-09-13T09:53:47.302Z,1.90
2022-09-13T09:56:24.828Z,1.40
2022-09-13T09:58:54.356Z,2.78
2022-09-13T10:01:26.033Z,1.60
2022-09-13T10:03:59.304Z,1.42
2022-09-13T10:06:30.028Z,2.10
2022-09-13T10:09:05.580Z,1.23
2022-09-13T10:11:42.639Z,2.13
2022-09-13T10:14:30.065Z,2.17
2022-09-13T10:17:06.282Z,3.33
2022-09-13T10:19:34.542Z,2.72
2022-09-13T10:22:05.654Z,4.45
2022-09-13T10:24:35.235Z,3.85
2022-09-13T10:27:04.022Z,1.95
2022-09-13T10:29:33.072Z,1.55
2022-09-13T10:32:08.800Z,2.20
2022-09-13T10:34:38.319Z,1.15
2022-09-13T10:37:13.886Z,1.63
2022-09-13T10:39:57.852Z,1.15
2022-09-13T10:42:28.130Z,1.08
2022-09-13T10:44:58.453Z,1.20
2022-09-13T10:47:31.146Z,2.63
2022-09-13T10:50:05.872Z,1.10
2022-09-13T10:52:35.839Z,2.45
2022-09-13T10:55:28.759Z,1.70
2022-09-13T10:58:13.466Z,0.98
2022-09-13T11:00:49.069Z,1.00
2022-09-13T11:03:31.419Z,1.60
2022-09-13T11:06:06.301Z,1.00
2022-09-13T11:08:46.899Z,2.63
2022-09-13T11:11:24.029Z,2.25
2022-09-13T11:14:06.291Z,3.15
2022-09-13T11:16:46.221Z,3.15
2022-09-13T11:19:57.063Z,2.28
2022-09-13T11:22:47.243Z,1.60
2022-09-13T11:25:28.380Z,3.53
2022-09-13T11:28:06.212Z,2.30
2022-09-13T11:30:39.608Z,4.32
2022-09-13T11:33:25.679Z,0.98
2022-09-13T11:36:19.642Z,0.80
2022-09-13T11:38:58.960Z,2.67
2022-09-13T11:41:36.867Z,1.58
2022-09-13T11:44:24.344Z,1.67
2022-09-13T11:47:00.790Z,2.40
2022-09-13T11:49:58.870Z,1.75
2022-09-13T11:52:38.603Z,3.30
2022-09-13T11:55:18.724Z,1.80
2022-09-13T11:57:50.742Z,5.47
2022-09-13T12:00:25.667Z,1.52
2022-09-13T12:03:04.796Z,2.40
2022-09-13T12:05:36.719Z,1.92
2022-09-13T12:08:11.866Z,2.83
2022-09-13T12:10:46.901Z,1.58
2022-09-13T12:13:21.334Z,1.88
2022-09-13T12:15:54.671Z,1.85
2022-09-13T12:18:27.411Z,1.83
2022-09-13T12:20:58.525Z,3.50
2022-09-13T12:23:30.914Z,2.70
2022-09-13T12:26:03.214Z,3.65
2022-09-13T12:28:35.333Z,1.58
2022-09-13T12:31:10.517Z,1.70
2022-09-13T12:33:41.631Z,1.85
2022-09-13T12:36:51.012Z,3.40
2022-09-13T12:39:39.255Z,1.13
2022-09-13T12:42:46.027Z,1.33
2022-09-13T12:45:26.937Z,3.22
2022-09-13T12:48:19.131Z,2.70
2022-09-13T12:51:00.272Z,1.33
2022-09-13T12:53:57.926Z,1.88
2022-09-13T12:56:48.296Z,0.82
2022-09-13T12:59:44.747Z,2.17
2022-09-13T13:02:32.767Z,2.15
2022-09-13T13:05:06.358Z,0.73
2022-09-13T13:07:37.977Z,2.40
2022-09-13T13:10:06.812Z,2.25
2022-09-13T13:12:37.675Z,1.40
2022-09-13T13:15:08.049Z,1.98
2022-09-13T13:17:48.192Z,1.42
2022-09-13T13:20:45.878Z,2.92
2022-09-13T13:23:20.467Z,2.38
2022-09-13T13:26:09.752Z,3.45
2022-09-13T13:29:05.865Z,1.30
2022-09-13T13:31:42.353Z,3.53
2022-09-13T13:34:33.436Z,1.80
2022-09-13T13:37:05.579Z,0.82
2022-09-13T13:39:39.891Z,1.50
2022-09-13T13:42:25.520Z,3.08
2022-09-13T13:45:20.318Z,1.27
2022-09-13T13:48:09.806Z,2.53
2022-09-13T13:51:13.629Z,1.98
2022-09-13T13:53:45.905Z,3.03
2022-09-13T13:56:36.263Z,2.78
2022-09-13T13:59:13.188Z,1.70
2022-09-13T14:01:47.359Z,2.20
2022-09-13T14:04:48.558Z,1.42
2022-09-13T14:07:30.333Z,2.40
2022-09-13T14:10:04.986Z,0.90
2022-09-13T14:12:51.077Z,3.70
2022-09-13T14:15:31.068Z,3.58
2022-09-13T14:18:27.836Z,1.50
2022-09-13T14:21:03.861Z,1.33
2022-09-13T14:23:33.317Z,1.58
2022-09-13T14:26:02.735Z,2.90
2022-09-13T14:28:30.641Z,2.20
2022-09-13T14:31:00.603Z,2.25
2022-09-13T14:33:31.983Z,2.75
2022-09-13T14:36:02.971Z,1.47
2022-09-13T14:38:35.610Z,0.85
2022-09-13T14:41:15.141Z,1.42
2022-09-13T14:43:44.051Z,2.17
2022-09-13T14:46:16.587Z,2.92
2022-09-13T14:48:51.344Z,1.08
2022-09-13T14:51:24.235Z,1.52
2022-09-13T14:53:54.787Z,1.08
2022-09-13T14:56:32.484Z,0.98
2022-09-13T14:59:02.455Z,4.40
2022-09-13T15:01:34.599Z,2.63
2022-09-13T15:04:05.578Z,1.95
2022-09-13T15:06:35.490Z,2.22
2022-09-13T15:09:16.517Z,2.20
2022-09-13T15:11:58.569Z,3.42
2022-09-13T15:14:29.043Z,4.15
2022-09-13T15:17:02.470Z,2.13
2022-09-13T15:19:38.623Z,2.80
2022-09-13T15:22:19.978Z,3.60
2022-09-13T15:24:50.774Z,5.47
2022-09-13T15:27:29.932Z,1.20
2022-09-13T15:30:00.379Z,3.60
2022-09-13T15:32:34.009Z,2.63
2022-09-13T15:35:02.916Z,2.97
2022-09-13T15:37:38.659Z,2.08
2022-09-13T15:40:19.519Z,1.20
2022-09-13T15:42:50.362Z,2.00
2022-09-13T15:45:19.685Z,1.85
2022-09-13T15:47:48.869Z,1.88
2022-09-13T15:50:26.658Z,2.90
2022-09-13T15:52:55.084Z,1.48
2022-09-13T15:55:23.348Z,1.95
2022-09-13T15:57:52.580Z,2.53
2022-09-13T16:00:24.397Z,3.80
2022-09-13T16:02:52.770Z,4.72
2022-09-13T16:05:21.071Z,2.67
2022-09-13T16:07:49.000Z,2.25
2022-09-13T16:10:19.074Z,3.50
2022-09-13T16:12:47.251Z,4.53
2022-09-13T16:15:16.909Z,3.13
2022-09-13T16:17:44.729Z,1.90
2022-09-13T16:20:14.723Z,2.13
2022-09-13T16:22:42.955Z,2.40
2022-09-13T16:25:12.935Z,1.67
2022-09-13T16:27:40.986Z,3.90
2022-09-13T16:30:11.589Z,2.90
2022-09-13T16:32:41.676Z,1.83
2022-09-13T16:35:11.160Z,2.90
2022-09-13T16:37:39.750Z,2.60
2022-09-13T16:40:09.460Z,3.47
2022-09-13T16:42:38.133Z,1.40
2022-09-13T16:45:06.819Z,2.70
2022-09-13T16:47:35.145Z,2.47
2022-09-13T16:50:04.498Z,4.30
2022-09-13T16:52:32.699Z,1.77
2022-09-13T16:55:00.870Z,3.72
2022-09-13T16:57:29.208Z,5.78
2022-09-13T16:59:58.999Z,2.70
2022-09-13T17:02:27.880Z,2.72
2022-09-13T17:04:55.867Z,4.18
2022-09-13T17:07:25.175Z,2.47
2022-09-13T17:09:52.950Z,3.45
2022-09-13T17:12:21.145Z,7.70
2022-09-13T17:14:50.568Z,2.38
2022-09-13T17:17:18.983Z,2.50
2022-09-13T17:19:46.928Z,2.63
2022-09-13T17:22:16.348Z,3.38
2022-09-13T17:24:45.947Z,3.50
2022-09-13T17:27:13.761Z,2.65
2022-09-13T17:29:41.575Z,2.13
2022-09-13T17:32:09.521Z,2.40
2022-09-13T17:34:37.908Z,2.80
2022-09-13T17:37:06.746Z,2.03
2022-09-13T17:39:34.735Z,3.95
2022-09-13T17:42:04.055Z,1.10
2022-09-13T17:44:31.885Z,1.85
2022-09-13T17:46:59.720Z,3.30
2022-09-13T17:49:27.447Z,2.75
2022-09-13T17:51:55.943Z,3.47
2022-09-13T17:54:23.799Z,3.60
2022-09-13T17:56:52.038Z,2.45
2022-09-13T17:59:22.994Z,3.80
2022-09-13T18:01:52.756Z,3.78
2022-09-13T18:04:23.037Z,3.25
2022-09-13T18:06:52.365Z,4.00
2022-09-13T18:09:20.629Z,3.10
2022-09-13T18:11:48.770Z,3.05
2022-09-13T18:14:18.794Z,1.83
2022-09-13T18:16:49.247Z,3.58
2022-09-13T18:19:46.334Z,3.13
2022-09-13T18:22:15.096Z,1.83
2022-09-13T18:24:42.906Z,4.20
2022-09-13T18:27:10.647Z,1.63
2022-09-13T18:29:38.428Z,2.58
2022-09-13T18:32:07.893Z,4.72
2022-09-13T18:34:35.678Z,3.28
2022-09-13T18:37:03.483Z,2.55
2022-09-13T18:39:31.531Z,4.88
2022-09-13T18:42:01.138Z,4.05
2022-09-13T18:44:30.277Z,1.63
2022-09-13T18:47:01.222Z,3.70
2022-09-13T18:49:30.720Z,5.13
2022-09-13T18:51:58.742Z,2.88
2022-09-13T18:54:26.847Z,1.92
2022-09-13T18:56:59.890Z,5.53
2022-09-13T18:59:30.536Z,2.45
2022-09-13T19:01:58.767Z,6.05
2022-09-13T19:04:27.197Z,4.07
2022-09-13T19:06:57.134Z,2.80
2022-09-13T19:09:26.283Z,3.72
2022-09-13T19:11:55.679Z,4.50
2022-09-13T19:14:27.226Z,2.78
2022-09-13T19:16:57.673Z,2.95
2022-09-13T19:19:26.527Z,3.75
2022-09-13T19:21:56.033Z,4.18
2022-09-13T19:24:25.461Z,2.63
2022-09-13T19:26:54.275Z,5.88
2022-09-13T19:29:24.334Z,3.55
2022-09-13T19:31:55.779Z,4.80
2022-09-13T19:34:25.144Z,3.08
2022-09-13T19:36:57.629Z,4.57
2022-09-13T19:39:30.110Z,6.32
2022-09-13T19:41:59.619Z,4.28
2022-09-13T19:44:28.264Z,2.83
2022-09-13T19:47:23.797Z,3.85
2022-09-13T19:49:44.024Z,3.30
2022-09-13T19:52:11.800Z,7.53
2022-09-13T19:54:40.981Z,7.03
2022-09-13T19:57:09.442Z,4.30
2022-09-13T19:59:37.202Z,5.65
2022-09-13T20:02:06.006Z,3.80
2022-09-13T20:04:34.006Z,4.32
2022-09-13T20:07:01.825Z,3.33
2022-09-13T20:09:31.479Z,5.68
2022-09-13T20:12:01.072Z,4.70
2022-09-13T20:14:28.866Z,4.07
2022-09-13T20:16:57.208Z,3.17
2022-09-13T20:19:44.811Z,3.90
2022-09-13T20:22:12.751Z,5.13
2022-09-13T20:24:40.515Z,2.97
2022-09-13T20:27:10.085Z,4.22
2022-09-13T20:29:37.840Z,3.47
2022-09-13T20:32:05.691Z,8.02
2022-09-13T20:34:35.067Z,3.85
2022-09-13T20:37:02.813Z,4.72
2022-09-13T20:39:30.619Z,7.25
2022-09-13T20:41:58.596Z,4.45
2022-09-13T20:44:28.047Z,7.05
2022-09-13T20:46:56.039Z,2.28
2022-09-13T20:49:23.922Z,5.80
2022-09-13T20:51:52.066Z,3.90
2022-09-13T20:54:19.914Z,9.25
2022-09-13T20:56:47.866Z,9.70
2022-09-13T20:59:15.966Z,5.50
2022-09-13T21:01:45.782Z,4.93
2022-09-13T21:04:14.086Z,4.18
2022-09-13T21:07:03.428Z,3.65
2022-09-13T21:09:32.426Z,3.25
2022-09-13T21:12:01.795Z,4.28
2022-09-13T21:14:33.913Z,6.18
2022-09-13T21:17:07.611Z,5.03
2022-09-13T21:19:35.718Z,4.45
2022-09-13T21:22:04.116Z,4.43
2022-09-13T21:24:32.524Z,4.82
2022-09-13T21:27:00.347Z,4.68
2022-09-13T21:29:28.559Z,4.10
2022-09-13T21:31:56.788Z,3.60
2022-09-13T21:34:27.226Z,5.25
2022-09-13T21:36:55.404Z,6.68
2022-09-13T21:39:23.807Z,3.85
2022-09-13T21:41:51.874Z,8.20
2022-09-13T21:44:19.671Z,4.57
2022-09-13T21:46:47.526Z,3.92
2022-09-13T21:49:15.747Z,3.83
2022-09-13T21:51:46.878Z,6.78
2022-09-13T21:54:17.103Z,5.22
2022-09-13T21:56:50.659Z,6.72
2022-09-13T21:59:20.858Z,5.25
2022-09-13T22:01:51.264Z,2.10
2022-09-13T22:04:21.032Z,5.38
2022-09-13T22:06:53.416Z,5.75
2022-09-13T22:09:22.917Z,5.32
2022-09-13T22:11:51.214Z,6.25
2022-09-13T22:14:21.821Z,5.40
2022-09-13T22:16:50.752Z,7.43
2022-09-13T22:19:20.916Z,3.90
2022-09-13T22:21:53.541Z,5.47
2022-09-13T22:24:23.243Z,5.70
2022-09-13T22:26:52.907Z,4.28
2022-09-13T22:29:22.023Z,4.30
2022-09-13T22:31:52.099Z,3.88
2022-09-13T22:34:21.548Z,4.68
2022-09-13T22:36:50.964Z,5.70
2022-09-13T22:39:19.218Z,3.25
2022-09-13T22:41:47.180Z,3.75
2022-09-13T22:44:15.418Z,5.10
2022-09-13T22:46:44.627Z,5.47
2022-09-13T22:49:14.608Z,3.05
2022-09-13T22:51:44.808Z,3.42
2022-09-13T22:54:14.483Z,2.97
2022-09-13T22:56:42.884Z,4.85
2022-09-13T22:59:13.773Z,3.42
2022-09-13T23:01:41.914Z,5.10
2022-09-13T23:04:09.770Z,1.40
2022-09-13T23:06:38.123Z,2.45
2022-09-13T23:09:08.135Z,5.70
2022-09-13T23:11:39.441Z,4.15
2022-09-13T23:14:09.740Z,3.25
2022-09-13T23:16:40.125Z,5.20
2022-09-13T23:19:08.763Z,6.05
2022-09-13T23:21:38.643Z,3.75
2022-09-13T23:24:08.917Z,8.82
2022-09-13T23:26:38.267Z,5.32
2022-09-13T23:29:06.421Z,6.03
2022-09-13T23:31:38.722Z,5.97
2022-09-13T23:34:08.381Z,3.42
2022-09-13T23:36:39.849Z,7.00
2022-09-13T23:39:09.544Z,5.75
2022-09-13T23:41:38.808Z,3.88
2022-09-13T23:44:06.719Z,5.53
2022-09-13T23:46:34.808Z,4.78
2022-09-13T23:49:02.838Z,6.40
2022-09-13T23:51:30.752Z,3.33
2022-09-13T23:54:00.803Z,3.08
2022-09-13T23:56:30.594Z,3.42
2022-09-13T23:59:01.650Z,3.72
